sensor_id;sensor_type;location;lat;lon;timestamp;temperature;humidity
1468;DHT22;727;48.892;9.544;2023-03-03T00:00:36;0.90;99.90
1468;DHT22;727;48.892;9.544;2023-03-03T00:03:05;0.90;99.90
1468;DHT22;727;48.892;9.544;2023-03-03T00:05:33;0.80;99.90
1468;DHT22;727;48.892;9.544;2023-03-03T00:08:01;0.80;99.90
1468;DHT22;727;48.892;9.544;2023-03-03T00:10:28;0.80;99.90
1468;DHT22;727;48.892;9.544;2023-03-03T00:12:56;0.70;99.90
1468;DHT22;727;48.892;9.544;2023-03-03T00:15:24;0.70;99.90
1468;DHT22;727;48.892;9.544;2023-03-03T00:17:51;0.70;99.90
1468;DHT22;727;48.892;9.544;2023-03-03T00:20:35;0.70;99.90
1468;DHT22;727;48.892;9.544;2023-03-03T00:23:14;0.70;99.90
1468;DHT22;727;48.892;9.544;2023-03-03T00:25:43;0.70;99.90
1468;DHT22;727;48.892;9.544;2023-03-03T00:28:21;0.70;99.90
1468;DHT22;727;48.892;9.544;2023-03-03T00:30:49;0.60;99.90
1468;DHT22;727;48.892;9.544;2023-03-03T00:33:24;0.60;99.90
1468;DHT22;727;48.892;9.544;2023-03-03T00:35:53;0.60;99.90
1468;DHT22;727;48.892;9.544;2023-03-03T00:38:20;0.60;99.90
1468;DHT22;727;48.892;9.544;2023-03-03T00:40:47;0.60;99.90
1468;DHT22;727;48.892;9.544;2023-03-03T00:43:21;0.60;99.90
1468;DHT22;727;48.892;9.544;2023-03-03T00:45:49;0.60;99.90
1468;DHT22;727;48.892;9.544;2023-03-03T00:48:25;0.60;99.90
1468;DHT22;727;48.892;9.544;2023-03-03T00:50:53;0.50;99.90
1468;DHT22;727;48.892;9.544;2023-03-03T00:53:21;0.50;99.90
1468;DHT22;727;48.892;9.544;2023-03-03T00:55:50;0.50;99.90
1468;DHT22;727;48.892;9.544;2023-03-03T00:58:17;0.50;99.90
1468;DHT22;727;48.892;9.544;2023-03-03T01:00:48;0.40;99.90
1468;DHT22;727;48.892;9.544;2023-03-03T01:03:17;0.40;99.90
1468;DHT22;727;48.892;9.544;2023-03-03T01:05:45;0.30;99.90
1468;DHT22;727;48.892;9.544;2023-03-03T01:08:11;0.30;99.90
1468;DHT22;727;48.892;9.544;2023-03-03T01:10:41;0.30;99.90
1468;DHT22;727;48.892;9.544;2023-03-03T01:13:09;0.20;99.90
1468;DHT22;727;48.892;9.544;2023-03-03T01:15:37;0.30;99.90
1468;DHT22;727;48.892;9.544;2023-03-03T01:18:06;0.30;99.90
1468;DHT22;727;48.892;9.544;2023-03-03T01:20:33;0.20;99.90
1468;DHT22;727;48.892;9.544;2023-03-03T01:23:00;0.20;99.90
1468;DHT22;727;48.892;9.544;2023-03-03T01:25:27;0.20;99.90
1468;DHT22;727;48.892;9.544;2023-03-03T01:27:54;0.20;99.90
1468;DHT22;727;48.892;9.544;2023-03-03T01:30:22;0.20;99.90
1468;DHT22;727;48.892;9.544;2023-03-03T01:32:49;0.20;99.90
1468;DHT22;727;48.892;9.544;2023-03-03T01:35:17;0.20;99.90
1468;DHT22;727;48.892;9.544;2023-03-03T01:37:45;0.20;99.90
1468;DHT22;727;48.892;9.544;2023-03-03T01:40:14;0.20;99.90
1468;DHT22;727;48.892;9.544;2023-03-03T01:42:41;0.10;99.90
1468;DHT22;727;48.892;9.544;2023-03-03T01:45:19;0.10;99.90
1468;DHT22;727;48.892;9.544;2023-03-03T01:47:51;0.10;99.90
1468;DHT22;727;48.892;9.544;2023-03-03T01:50:31;0.10;99.90
1468;DHT22;727;48.892;9.544;2023-03-03T01:53:00;0.10;99.90
1468;DHT22;727;48.892;9.544;2023-03-03T01:55:31;0.10;99.90
1468;DHT22;727;48.892;9.544;2023-03-03T01:58:02;0.10;99.90
1468;DHT22;727;48.892;9.544;2023-03-03T02:00:31;0.00;99.90
1468;DHT22;727;48.892;9.544;2023-03-03T02:02:59;0.00;99.90
1468;DHT22;727;48.892;9.544;2023-03-03T02:05:28;0.00;99.90
1468;DHT22;727;48.892;9.544;2023-03-03T02:07:55;-0.10;99.90
1468;DHT22;727;48.892;9.544;2023-03-03T02:10:23;-0.10;99.90
1468;DHT22;727;48.892;9.544;2023-03-03T02:12:51;-0.10;99.90
1468;DHT22;727;48.892;9.544;2023-03-03T02:15:20;-0.10;99.90
1468;DHT22;727;48.892;9.544;2023-03-03T02:17:50;-0.10;99.90
1468;DHT22;727;48.892;9.544;2023-03-03T02:20:30;-0.10;99.90
1468;DHT22;727;48.892;9.544;2023-03-03T02:23:03;-0.10;99.90
1468;DHT22;727;48.892;9.544;2023-03-03T02:25:40;-0.10;99.90
1468;DHT22;727;48.892;9.544;2023-03-03T02:28:10;-0.20;99.90
1468;DHT22;727;48.892;9.544;2023-03-03T02:30:38;-0.20;99.90
1468;DHT22;727;48.892;9.544;2023-03-03T02:33:05;-0.10;99.90
1468;DHT22;727;48.892;9.544;2023-03-03T02:35:34;-0.10;99.90
1468;DHT22;727;48.892;9.544;2023-03-03T02:38:18;-0.20;99.90
1468;DHT22;727;48.892;9.544;2023-03-03T02:40:55;-0.20;99.90
1468;DHT22;727;48.892;9.544;2023-03-03T02:43:28;-0.20;99.90
1468;DHT22;727;48.892;9.544;2023-03-03T02:46:00;-0.20;99.90
1468;DHT22;727;48.892;9.544;2023-03-03T02:48:27;-0.20;99.90
1468;DHT22;727;48.892;9.544;2023-03-03T02:50:53;-0.30;99.90
1468;DHT22;727;48.892;9.544;2023-03-03T02:53:20;-0.40;99.90
1468;DHT22;727;48.892;9.544;2023-03-03T02:55:47;-0.40;99.90
1468;DHT22;727;48.892;9.544;2023-03-03T02:58:14;-0.40;99.90
1468;DHT22;727;48.892;9.544;2023-03-03T03:00:42;-0.30;99.90
1468;DHT22;727;48.892;9.544;2023-03-03T03:03:12;-0.30;99.90
1468;DHT22;727;48.892;9.544;2023-03-03T03:05:39;-0.20;99.90
1468;DHT22;727;48.892;9.544;2023-03-03T03:08:06;-0.10;99.90
1468;DHT22;727;48.892;9.544;2023-03-03T03:10:32;-0.10;99.90
1468;DHT22;727;48.892;9.544;2023-03-03T03:12:59;-0.10;99.90
1468;DHT22;727;48.892;9.544;2023-03-03T03:15:26;-0.10;99.90
1468;DHT22;727;48.892;9.544;2023-03-03T03:17:54;-0.10;99.90
1468;DHT22;727;48.892;9.544;2023-03-03T03:20:21;0.00;99.90
1468;DHT22;727;48.892;9.544;2023-03-03T03:22:48;0.10;99.90
1468;DHT22;727;48.892;9.544;2023-03-03T03:25:15;0.20;99.90
1468;DHT22;727;48.892;9.544;2023-03-03T03:27:42;0.20;99.90
1468;DHT22;727;48.892;9.544;2023-03-03T03:30:10;0.30;99.90
1468;DHT22;727;48.892;9.544;2023-03-03T03:32:37;0.30;99.90
1468;DHT22;727;48.892;9.544;2023-03-03T03:35:06;0.40;99.90
1468;DHT22;727;48.892;9.544;2023-03-03T03:37:33;0.40;99.90
1468;DHT22;727;48.892;9.544;2023-03-03T03:39:59;0.50;99.90
1468;DHT22;727;48.892;9.544;2023-03-03T03:42:26;0.50;99.90
1468;DHT22;727;48.892;9.544;2023-03-03T03:44:53;0.50;99.90
1468;DHT22;727;48.892;9.544;2023-03-03T03:47:20;0.50;99.90
1468;DHT22;727;48.892;9.544;2023-03-03T03:49:47;0.60;99.90
1468;DHT22;727;48.892;9.544;2023-03-03T03:52:15;0.70;99.90
1468;DHT22;727;48.892;9.544;2023-03-03T03:54:42;0.70;99.90
1468;DHT22;727;48.892;9.544;2023-03-03T03:57:09;0.80;99.90
1468;DHT22;727;48.892;9.544;2023-03-03T03:59:36;0.80;99.90
1468;DHT22;727;48.892;9.544;2023-03-03T04:02:03;0.90;99.90
1468;DHT22;727;48.892;9.544;2023-03-03T04:04:30;0.90;99.90
1468;DHT22;727;48.892;9.544;2023-03-03T04:06:57;1.00;99.90
1468;DHT22;727;48.892;9.544;2023-03-03T04:09:25;1.00;99.90
1468;DHT22;727;48.892;9.544;2023-03-03T04:11:52;0.90;99.90
1468;DHT22;727;48.892;9.544;2023-03-03T04:14:19;0.90;99.90
1468;DHT22;727;48.892;9.544;2023-03-03T04:16:46;0.90;99.90
1468;DHT22;727;48.892;9.544;2023-03-03T04:19:13;0.80;99.90
1468;DHT22;727;48.892;9.544;2023-03-03T04:21:40;0.80;99.90
1468;DHT22;727;48.892;9.544;2023-03-03T04:24:07;0.80;99.90
1468;DHT22;727;48.892;9.544;2023-03-03T04:26:35;0.70;99.90
1468;DHT22;727;48.892;9.544;2023-03-03T04:29:02;0.80;99.90
1468;DHT22;727;48.892;9.544;2023-03-03T04:31:31;0.80;99.90
1468;DHT22;727;48.892;9.544;2023-03-03T04:33:58;0.80;99.90
1468;DHT22;727;48.892;9.544;2023-03-03T04:36:25;0.90;99.90
1468;DHT22;727;48.892;9.544;2023-03-03T04:38:51;0.90;99.90
1468;DHT22;727;48.892;9.544;2023-03-03T04:41:19;1.00;99.90
1468;DHT22;727;48.892;9.544;2023-03-03T04:43:47;1.00;99.90
1468;DHT22;727;48.892;9.544;2023-03-03T04:46:14;1.00;99.90
1468;DHT22;727;48.892;9.544;2023-03-03T04:48:41;1.00;99.90
1468;DHT22;727;48.892;9.544;2023-03-03T04:51:08;1.00;99.90
1468;DHT22;727;48.892;9.544;2023-03-03T04:53:35;1.00;99.90
1468;DHT22;727;48.892;9.544;2023-03-03T04:56:03;1.00;99.90
1468;DHT22;727;48.892;9.544;2023-03-03T04:58:30;0.90;99.90
1468;DHT22;727;48.892;9.544;2023-03-03T05:00:58;0.90;99.90
1468;DHT22;727;48.892;9.544;2023-03-03T05:03:26;0.90;99.90
1468;DHT22;727;48.892;9.544;2023-03-03T05:05:54;0.90;99.90
1468;DHT22;727;48.892;9.544;2023-03-03T05:08:25;0.90;99.90
1468;DHT22;727;48.892;9.544;2023-03-03T05:10:52;1.00;99.90
1468;DHT22;727;48.892;9.544;2023-03-03T05:13:19;1.00;99.90
1468;DHT22;727;48.892;9.544;2023-03-03T05:15:49;1.10;99.90
1468;DHT22;727;48.892;9.544;2023-03-03T05:18:20;1.10;99.90
1468;DHT22;727;48.892;9.544;2023-03-03T05:20:47;1.10;99.90
1468;DHT22;727;48.892;9.544;2023-03-03T05:23:15;1.10;99.90
1468;DHT22;727;48.892;9.544;2023-03-03T05:25:43;1.10;99.90
1468;DHT22;727;48.892;9.544;2023-03-03T05:28:29;1.10;99.90
1468;DHT22;727;48.892;9.544;2023-03-03T05:30:56;1.20;99.90
1468;DHT22;727;48.892;9.544;2023-03-03T05:33:24;1.20;99.90
1468;DHT22;727;48.892;9.544;2023-03-03T05:35:55;1.20;99.90
1468;DHT22;727;48.892;9.544;2023-03-03T05:38:23;1.30;99.90
1468;DHT22;727;48.892;9.544;2023-03-03T05:40:50;1.30;99.90
1468;DHT22;727;48.892;9.544;2023-03-03T05:43:17;1.30;99.90
1468;DHT22;727;48.892;9.544;2023-03-03T05:45:44;1.40;99.90
1468;DHT22;727;48.892;9.544;2023-03-03T05:48:11;1.40;99.90
1468;DHT22;727;48.892;9.544;2023-03-03T05:50:39;1.40;99.90
1468;DHT22;727;48.892;9.544;2023-03-03T05:53:06;1.40;99.90
1468;DHT22;727;48.892;9.544;2023-03-03T05:55:33;1.40;99.90
1468;DHT22;727;48.892;9.544;2023-03-03T05:57:59;1.50;99.90
1468;DHT22;727;48.892;9.544;2023-03-03T06:00:26;1.50;99.90
1468;DHT22;727;48.892;9.544;2023-03-03T06:02:53;1.50;99.90
1468;DHT22;727;48.892;9.544;2023-03-03T06:05:20;1.50;99.90
1468;DHT22;727;48.892;9.544;2023-03-03T06:07:48;1.60;99.90
1468;DHT22;727;48.892;9.544;2023-03-03T06:10:15;1.60;99.90
1468;DHT22;727;48.892;9.544;2023-03-03T06:12:42;1.60;99.90
1468;DHT22;727;48.892;9.544;2023-03-03T06:15:09;1.60;99.90
1468;DHT22;727;48.892;9.544;2023-03-03T06:17:36;1.70;99.90
1468;DHT22;727;48.892;9.544;2023-03-03T06:20:04;1.70;99.90
1468;DHT22;727;48.892;9.544;2023-03-03T06:22:31;1.60;99.90
1468;DHT22;727;48.892;9.544;2023-03-03T06:25:00;1.60;99.90
1468;DHT22;727;48.892;9.544;2023-03-03T06:27:27;1.60;99.90
1468;DHT22;727;48.892;9.544;2023-03-03T06:29:54;1.70;99.90
1468;DHT22;727;48.892;9.544;2023-03-03T06:32:20;1.70;99.90
1468;DHT22;727;48.892;9.544;2023-03-03T06:34:47;1.70;99.90
1468;DHT22;727;48.892;9.544;2023-03-03T06:37:14;1.80;99.90
1468;DHT22;727;48.892;9.544;2023-03-03T06:39:41;1.90;99.90
1468;DHT22;727;48.892;9.544;2023-03-03T06:42:10;2.00;99.90
1468;DHT22;727;48.892;9.544;2023-03-03T06:44:36;2.00;99.90
1468;DHT22;727;48.892;9.544;2023-03-03T06:47:03;2.00;99.90
1468;DHT22;727;48.892;9.544;2023-03-03T06:49:30;2.10;99.90
1468;DHT22;727;48.892;9.544;2023-03-03T06:51:58;2.10;99.90
1468;DHT22;727;48.892;9.544;2023-03-03T06:54:28;2.20;99.90
1468;DHT22;727;48.892;9.544;2023-03-03T06:56:58;2.30;99.90
1468;DHT22;727;48.892;9.544;2023-03-03T06:59:27;2.40;99.90
1468;DHT22;727;48.892;9.544;2023-03-03T07:01:55;2.40;99.90
1468;DHT22;727;48.892;9.544;2023-03-03T07:04:25;2.50;99.90
1468;DHT22;727;48.892;9.544;2023-03-03T07:06:55;2.50;99.90
1468;DHT22;727;48.892;9.544;2023-03-03T07:09:25;2.60;99.90
1468;DHT22;727;48.892;9.544;2023-03-03T07:11:52;2.70;99.90
1468;DHT22;727;48.892;9.544;2023-03-03T07:14:19;2.70;99.90
1468;DHT22;727;48.892;9.544;2023-03-03T07:16:51;2.90;99.90
1468;DHT22;727;48.892;9.544;2023-03-03T07:19:22;2.90;99.90
1468;DHT22;727;48.892;9.544;2023-03-03T07:21:53;2.90;99.90
1468;DHT22;727;48.892;9.544;2023-03-03T07:24:25;3.00;99.90
1468;DHT22;727;48.892;9.544;2023-03-03T07:26:55;3.00;99.90
1468;DHT22;727;48.892;9.544;2023-03-03T07:29:26;3.10;99.90
1468;DHT22;727;48.892;9.544;2023-03-03T07:31:57;3.30;99.90
1468;DHT22;727;48.892;9.544;2023-03-03T07:34:29;3.50;99.90
1468;DHT22;727;48.892;9.544;2023-03-03T07:37:01;4.10;99.90
1468;DHT22;727;48.892;9.544;2023-03-03T07:39:33;4.70;99.90
1468;DHT22;727;48.892;9.544;2023-03-03T07:42:16;5.60;99.90
1468;DHT22;727;48.892;9.544;2023-03-03T07:44:45;7.20;99.90
1468;DHT22;727;48.892;9.544;2023-03-03T07:47:20;8.60;99.90
1468;DHT22;727;48.892;9.544;2023-03-03T07:49:51;9.70;96.00
1468;DHT22;727;48.892;9.544;2023-03-03T07:52:24;10.20;92.90
1468;DHT22;727;48.892;9.544;2023-03-03T07:54:52;9.90;91.40
1468;DHT22;727;48.892;9.544;2023-03-03T07:57:22;9.40;91.10
1468;DHT22;727;48.892;9.544;2023-03-03T07:59:51;8.90;91.50
1468;DHT22;727;48.892;9.544;2023-03-03T08:02:34;8.10;91.80
1468;DHT22;727;48.892;9.544;2023-03-03T08:05:21;7.60;93.10
1468;DHT22;727;48.892;9.544;2023-03-03T08:07:51;7.20;93.50
1468;DHT22;727;48.892;9.544;2023-03-03T08:10:31;6.90;94.50
1468;DHT22;727;48.892;9.544;2023-03-03T08:13:06;6.50;95.00
1468;DHT22;727;48.892;9.544;2023-03-03T08:15:36;6.20;96.30
1468;DHT22;727;48.892;9.544;2023-03-03T08:18:18;6.30;96.90
1468;DHT22;727;48.892;9.544;2023-03-03T08:20:48;6.60;97.10
1468;DHT22;727;48.892;9.544;2023-03-03T08:23:17;7.20;97.20
1468;DHT22;727;48.892;9.544;2023-03-03T08:25:44;7.80;96.00
1468;DHT22;727;48.892;9.544;2023-03-03T08:28:12;7.70;95.00
1468;DHT22;727;48.892;9.544;2023-03-03T08:30:40;7.90;95.10
1468;DHT22;727;48.892;9.544;2023-03-03T08:33:08;8.40;94.60
1468;DHT22;727;48.892;9.544;2023-03-03T08:35:35;8.40;93.70
1468;DHT22;727;48.892;9.544;2023-03-03T08:38:02;8.30;93.50
1468;DHT22;727;48.892;9.544;2023-03-03T08:40:30;8.20;93.60
1468;DHT22;727;48.892;9.544;2023-03-03T08:42:57;8.10;93.60
1468;DHT22;727;48.892;9.544;2023-03-03T08:45:23;8.10;93.60
1468;DHT22;727;48.892;9.544;2023-03-03T08:47:50;8.20;93.70
1468;DHT22;727;48.892;9.544;2023-03-03T08:50:19;8.40;93.60
1468;DHT22;727;48.892;9.544;2023-03-03T08:52:46;8.80;93.00
1468;DHT22;727;48.892;9.544;2023-03-03T08:55:13;9.10;91.90
1468;DHT22;727;48.892;9.544;2023-03-03T08:57:40;9.20;91.00
1468;DHT22;727;48.892;9.544;2023-03-03T09:00:09;9.10;90.80
1468;DHT22;727;48.892;9.544;2023-03-03T09:02:36;9.00;90.90
1468;DHT22;727;48.892;9.544;2023-03-03T09:05:04;8.90;90.80
1468;DHT22;727;48.892;9.544;2023-03-03T09:07:32;8.70;91.20
1468;DHT22;727;48.892;9.544;2023-03-03T09:09:59;8.90;91.30
1468;DHT22;727;48.892;9.544;2023-03-03T09:12:29;9.10;91.10
1468;DHT22;727;48.892;9.544;2023-03-03T09:15:05;9.30;90.70
1468;DHT22;727;48.892;9.544;2023-03-03T09:17:36;10.10;90.30
1468;DHT22;727;48.892;9.544;2023-03-03T09:20:21;10.90;85.80
1468;DHT22;727;48.892;9.544;2023-03-03T09:22:50;10.90;84.60
1468;DHT22;727;48.892;9.544;2023-03-03T09:25:21;10.90;83.60
1468;DHT22;727;48.892;9.544;2023-03-03T09:27:51;11.50;83.80
1468;DHT22;727;48.892;9.544;2023-03-03T09:30:31;13.20;81.90
1468;DHT22;727;48.892;9.544;2023-03-03T09:33:01;13.80;72.70
1468;DHT22;727;48.892;9.544;2023-03-03T09:35:42;13.60;72.70
1468;DHT22;727;48.892;9.544;2023-03-03T09:38:26;13.50;72.20
1468;DHT22;727;48.892;9.544;2023-03-03T09:43:46;12.20;72.50
1468;DHT22;727;48.892;9.544;2023-03-03T09:46:20;11.80;74.50
1468;DHT22;727;48.892;9.544;2023-03-03T09:49:00;11.80;75.80
1468;DHT22;727;48.892;9.544;2023-03-03T09:51:40;12.30;75.20
1468;DHT22;727;48.892;9.544;2023-03-03T09:54:22;12.00;74.60
1468;DHT22;727;48.892;9.544;2023-03-03T09:57:01;11.80;75.20
1468;DHT22;727;48.892;9.544;2023-03-03T09:59:46;11.70;74.90
1468;DHT22;727;48.892;9.544;2023-03-03T10:02:28;11.50;75.30
1468;DHT22;727;48.892;9.544;2023-03-03T10:05:13;11.50;75.90
1468;DHT22;727;48.892;9.544;2023-03-03T10:07:52;11.40;76.40
1468;DHT22;727;48.892;9.544;2023-03-03T10:10:37;11.50;76.60
1468;DHT22;727;48.892;9.544;2023-03-03T10:13:18;11.50;75.40
1468;DHT22;727;48.892;9.544;2023-03-03T10:15:53;10.90;76.00
1468;DHT22;727;48.892;9.544;2023-03-03T10:18:29;10.20;77.60
1468;DHT22;727;48.892;9.544;2023-03-03T10:21:08;10.00;78.90
1468;DHT22;727;48.892;9.544;2023-03-03T10:23:51;10.10;79.60
1468;DHT22;727;48.892;9.544;2023-03-03T10:29:13;10.10;79.30
1468;DHT22;727;48.892;9.544;2023-03-03T10:31:51;10.00;80.50
1468;DHT22;727;48.892;9.544;2023-03-03T10:34:29;10.00;80.30
1468;DHT22;727;48.892;9.544;2023-03-03T10:37:03;10.20;80.70
1468;DHT22;727;48.892;9.544;2023-03-03T10:39:57;10.20;80.10
1468;DHT22;727;48.892;9.544;2023-03-03T10:42:49;10.30;80.40
1468;DHT22;727;48.892;9.544;2023-03-03T10:45:35;10.40;79.40
1468;DHT22;727;48.892;9.544;2023-03-03T10:48:12;10.80;78.90
1468;DHT22;727;48.892;9.544;2023-03-03T10:50:50;11.10;77.80
1468;DHT22;727;48.892;9.544;2023-03-03T10:53:24;11.40;76.20
1468;DHT22;727;48.892;9.544;2023-03-03T10:56:08;11.70;76.30
1468;DHT22;727;48.892;9.544;2023-03-03T10:58:45;12.10;74.40
1468;DHT22;727;48.892;9.544;2023-03-03T11:01:24;12.30;71.60
1468;DHT22;727;48.892;9.544;2023-03-03T11:04:24;12.00;70.70
1468;DHT22;727;48.892;9.544;2023-03-03T11:06:57;11.70;70.40
1468;DHT22;727;48.892;9.544;2023-03-03T11:10:00;11.60;70.20
1468;DHT22;727;48.892;9.544;2023-03-03T11:12:40;11.40;71.40
1468;DHT22;727;48.892;9.544;2023-03-03T11:15:26;11.40;70.60
1468;DHT22;727;48.892;9.544;2023-03-03T11:18:06;11.30;72.40
1468;DHT22;727;48.892;9.544;2023-03-03T11:20:41;11.20;72.60
1468;DHT22;727;48.892;9.544;2023-03-03T11:23:22;11.20;72.10
1468;DHT22;727;48.892;9.544;2023-03-03T11:25:55;11.20;72.60
1468;DHT22;727;48.892;9.544;2023-03-03T11:28:33;11.30;72.40
1468;DHT22;727;48.892;9.544;2023-03-03T11:31:15;11.20;72.00
1468;DHT22;727;48.892;9.544;2023-03-03T11:33:49;11.20;73.10
1468;DHT22;727;48.892;9.544;2023-03-03T11:36:22;11.40;72.70
1468;DHT22;727;48.892;9.544;2023-03-03T11:38:56;11.70;73.20
1468;DHT22;727;48.892;9.544;2023-03-03T11:41:30;11.80;72.60
1468;DHT22;727;48.892;9.544;2023-03-03T11:44:03;11.80;71.20
1468;DHT22;727;48.892;9.544;2023-03-03T11:46:39;11.80;70.30
1468;DHT22;727;48.892;9.544;2023-03-03T11:49:14;11.50;69.80
1468;DHT22;727;48.892;9.544;2023-03-03T11:51:53;11.50;71.90
1468;DHT22;727;48.892;9.544;2023-03-03T11:54:27;11.90;70.80
1468;DHT22;727;48.892;9.544;2023-03-03T11:57:00;12.20;70.70
1468;DHT22;727;48.892;9.544;2023-03-03T11:59:43;12.80;67.10
1468;DHT22;727;48.892;9.544;2023-03-03T12:02:27;13.10;65.50
1468;DHT22;727;48.892;9.544;2023-03-03T12:05:03;13.60;64.50
1468;DHT22;727;48.892;9.544;2023-03-03T12:07:36;14.50;63.10
1468;DHT22;727;48.892;9.544;2023-03-03T12:10:16;16.40;59.80
1468;DHT22;727;48.892;9.544;2023-03-03T12:12:51;18.30;55.20
1468;DHT22;727;48.892;9.544;2023-03-03T12:15:27;18.90;51.90
1468;DHT22;727;48.892;9.544;2023-03-03T12:18:18;19.60;50.70
1468;DHT22;727;48.892;9.544;2023-03-03T12:20:54;20.20;48.60
1468;DHT22;727;48.892;9.544;2023-03-03T12:23:38;20.30;48.00
1468;DHT22;727;48.892;9.544;2023-03-03T12:26:11;20.20;48.00
1468;DHT22;727;48.892;9.544;2023-03-03T12:28:45;20.60;46.50
1468;DHT22;727;48.892;9.544;2023-03-03T12:31:22;20.40;46.40
1468;DHT22;727;48.892;9.544;2023-03-03T12:33:54;20.50;46.50
1468;DHT22;727;48.892;9.544;2023-03-03T12:36:42;20.90;44.60
1468;DHT22;727;48.892;9.544;2023-03-03T12:39:22;20.00;44.40
1468;DHT22;727;48.892;9.544;2023-03-03T12:41:58;19.50;45.60
1468;DHT22;727;48.892;9.544;2023-03-03T12:44:32;19.50;45.60
1468;DHT22;727;48.892;9.544;2023-03-03T12:47:08;18.90;48.00
1468;DHT22;727;48.892;9.544;2023-03-03T12:49:42;19.10;46.50
1468;DHT22;727;48.892;9.544;2023-03-03T12:52:22;18.80;45.50
1468;DHT22;727;48.892;9.544;2023-03-03T12:55:01;17.90;46.90
1468;DHT22;727;48.892;9.544;2023-03-03T12:57:36;17.90;47.80
1468;DHT22;727;48.892;9.544;2023-03-03T13:00:18;17.80;48.10
1468;DHT22;727;48.892;9.544;2023-03-03T13:03:00;16.80;48.90
1468;DHT22;727;48.892;9.544;2023-03-03T13:05:39;17.40;48.50
1468;DHT22;727;48.892;9.544;2023-03-03T13:11:18;17.50;47.50
1468;DHT22;727;48.892;9.544;2023-03-03T13:13:51;17.20;47.40
1468;DHT22;727;48.892;9.544;2023-03-03T13:16:24;16.40;48.40
1468;DHT22;727;48.892;9.544;2023-03-03T13:18:56;16.20;48.90
1468;DHT22;727;48.892;9.544;2023-03-03T13:21:33;15.90;49.50
1468;DHT22;727;48.892;9.544;2023-03-03T13:24:06;15.80;49.90
1468;DHT22;727;48.892;9.544;2023-03-03T13:26:40;16.70;49.60
1468;DHT22;727;48.892;9.544;2023-03-03T13:29:14;16.80;48.40
1468;DHT22;727;48.892;9.544;2023-03-03T13:31:47;16.70;48.20
1468;DHT22;727;48.892;9.544;2023-03-03T13:34:25;17.10;48.30
1468;DHT22;727;48.892;9.544;2023-03-03T13:37:00;17.40;48.10
1468;DHT22;727;48.892;9.544;2023-03-03T13:39:31;17.60;47.50
1468;DHT22;727;48.892;9.544;2023-03-03T13:42:01;17.40;47.30
1468;DHT22;727;48.892;9.544;2023-03-03T13:44:33;17.10;47.80
1468;DHT22;727;48.892;9.544;2023-03-03T13:47:13;16.90;48.20
1468;DHT22;727;48.892;9.544;2023-03-03T13:49:56;17.10;47.90
1468;DHT22;727;48.892;9.544;2023-03-03T13:52:28;16.80;48.40
1468;DHT22;727;48.892;9.544;2023-03-03T13:55:11;16.20;48.80
1468;DHT22;727;48.892;9.544;2023-03-03T13:57:54;16.10;49.60
1468;DHT22;727;48.892;9.544;2023-03-03T14:00:37;16.40;50.00
1468;DHT22;727;48.892;9.544;2023-03-03T14:03:18;16.70;48.90
1468;DHT22;727;48.892;9.544;2023-03-03T14:05:48;16.30;49.00
1468;DHT22;727;48.892;9.544;2023-03-03T14:08:29;15.70;50.60
1468;DHT22;727;48.892;9.544;2023-03-03T14:11:09;14.90;51.40
1468;DHT22;727;48.892;9.544;2023-03-03T14:13:42;14.20;52.70
1468;DHT22;727;48.892;9.544;2023-03-03T14:16:17;13.70;54.10
1468;DHT22;727;48.892;9.544;2023-03-03T14:18:52;13.40;54.90
1468;DHT22;727;48.892;9.544;2023-03-03T14:21:27;13.30;55.20
1468;DHT22;727;48.892;9.544;2023-03-03T14:24:00;13.10;55.60
1468;DHT22;727;48.892;9.544;2023-03-03T14:26:29;12.90;56.60
1468;DHT22;727;48.892;9.544;2023-03-03T14:29:21;13.00;56.30
1468;DHT22;727;48.892;9.544;2023-03-03T14:31:48;13.10;56.90
1468;DHT22;727;48.892;9.544;2023-03-03T14:34:34;12.80;56.70
1468;DHT22;727;48.892;9.544;2023-03-03T14:37:20;12.70;57.30
1468;DHT22;727;48.892;9.544;2023-03-03T14:39:59;12.70;57.50
1468;DHT22;727;48.892;9.544;2023-03-03T14:42:34;12.60;57.50
1468;DHT22;727;48.892;9.544;2023-03-03T14:45:18;12.50;58.00
1468;DHT22;727;48.892;9.544;2023-03-03T14:47:46;12.30;58.10
1468;DHT22;727;48.892;9.544;2023-03-03T14:50:33;12.30;58.50
1468;DHT22;727;48.892;9.544;2023-03-03T14:53:12;12.20;59.20
1468;DHT22;727;48.892;9.544;2023-03-03T14:55:43;12.10;59.60
1468;DHT22;727;48.892;9.544;2023-03-03T14:58:28;12.20;59.80
1468;DHT22;727;48.892;9.544;2023-03-03T15:01:20;12.30;59.40
1468;DHT22;727;48.892;9.544;2023-03-03T15:03:49;12.30;59.10
1468;DHT22;727;48.892;9.544;2023-03-03T15:06:36;12.50;59.20
1468;DHT22;727;48.892;9.544;2023-03-03T15:09:26;12.50;59.60
1468;DHT22;727;48.892;9.544;2023-03-03T15:12:00;12.20;60.00
1468;DHT22;727;48.892;9.544;2023-03-03T15:14:30;11.80;60.80
1468;DHT22;727;48.892;9.544;2023-03-03T15:17:16;11.50;62.80
1468;DHT22;727;48.892;9.544;2023-03-03T15:22:45;11.50;63.70
1468;DHT22;727;48.892;9.544;2023-03-03T15:25:21;11.50;64.10
1468;DHT22;727;48.892;9.544;2023-03-03T15:28:00;11.60;64.30
1468;DHT22;727;48.892;9.544;2023-03-03T15:30:36;11.80;64.00
1468;DHT22;727;48.892;9.544;2023-03-03T15:33:11;11.80;63.60
1468;DHT22;727;48.892;9.544;2023-03-03T15:35:47;11.90;63.50
1468;DHT22;727;48.892;9.544;2023-03-03T15:38:27;11.90;63.50
1468;DHT22;727;48.892;9.544;2023-03-03T15:41:00;11.90;64.00
1468;DHT22;727;48.892;9.544;2023-03-03T15:43:36;11.90;63.90
1468;DHT22;727;48.892;9.544;2023-03-03T15:46:15;11.90;64.00
1468;DHT22;727;48.892;9.544;2023-03-03T15:48:59;11.80;64.30
1468;DHT22;727;48.892;9.544;2023-03-03T15:51:41;11.60;65.10
1468;DHT22;727;48.892;9.544;2023-03-03T15:54:27;11.50;65.70
1468;DHT22;727;48.892;9.544;2023-03-03T15:56:57;11.40;66.10
1468;DHT22;727;48.892;9.544;2023-03-03T15:59:49;11.30;66.70
1468;DHT22;727;48.892;9.544;2023-03-03T16:02:23;11.10;67.50
1468;DHT22;727;48.892;9.544;2023-03-03T16:04:57;10.90;68.00
1468;DHT22;727;48.892;9.544;2023-03-03T16:07:33;10.70;68.80
1468;DHT22;727;48.892;9.544;2023-03-03T16:10:17;10.50;69.90
1468;DHT22;727;48.892;9.544;2023-03-03T16:12:51;10.30;70.60
1468;DHT22;727;48.892;9.544;2023-03-03T16:15:30;10.10;71.70
1468;DHT22;727;48.892;9.544;2023-03-03T16:18:04;10.00;72.70
1468;DHT22;727;48.892;9.544;2023-03-03T16:20:39;9.70;74.90
1468;DHT22;727;48.892;9.544;2023-03-03T16:23:16;9.60;75.40
1468;DHT22;727;48.892;9.544;2023-03-03T16:25:55;9.40;76.40
1468;DHT22;727;48.892;9.544;2023-03-03T16:28:29;9.20;77.30
1468;DHT22;727;48.892;9.544;2023-03-03T16:31:05;8.90;78.00
1468;DHT22;727;48.892;9.544;2023-03-03T16:33:44;8.80;78.80
1468;DHT22;727;48.892;9.544;2023-03-03T16:36:25;8.60;79.40
1468;DHT22;727;48.892;9.544;2023-03-03T16:39:01;8.50;80.20
1468;DHT22;727;48.892;9.544;2023-03-03T16:41:40;8.20;81.50
1468;DHT22;727;48.892;9.544;2023-03-03T16:44:19;8.00;82.50
1468;DHT22;727;48.892;9.544;2023-03-03T16:46:50;7.90;83.00
1468;DHT22;727;48.892;9.544;2023-03-03T16:49:24;7.80;83.80
1468;DHT22;727;48.892;9.544;2023-03-03T16:52:02;7.70;84.30
1468;DHT22;727;48.892;9.544;2023-03-03T16:54:36;7.60;84.80
1468;DHT22;727;48.892;9.544;2023-03-03T16:57:10;7.50;85.40
1468;DHT22;727;48.892;9.544;2023-03-03T16:59:54;7.40;86.00
1468;DHT22;727;48.892;9.544;2023-03-03T17:03:00;7.20;87.00
1468;DHT22;727;48.892;9.544;2023-03-03T17:05:39;7.00;87.80
1468;DHT22;727;48.892;9.544;2023-03-03T17:08:21;6.90;89.00
1468;DHT22;727;48.892;9.544;2023-03-03T17:10:51;6.70;90.00
1468;DHT22;727;48.892;9.544;2023-03-03T17:13:42;6.50;90.20
1468;DHT22;727;48.892;9.544;2023-03-03T17:16:18;6.30;90.80